Time;durP1;ratioP1;P1;durP2;ratioP2;P2;SDS_P1;SDS_P2;PMS_P1;PMS_P2;Temp;Humidity;BMP_temperature;BMP_pressure;BME280_temperature;BME280_humidity;BME280_pressure;Samples;Min_cycle;Max_cycle;Signal;HPM_P1;HPM_P2
2021/07/01 00:00:39;;;;;;;12.38;10.20;;;;;;;22.81;71.48;98853.19;3508847;28;20496;-41
2021/07/01 00:02:21;;;;;;;14.38;10.52;;;;;;;22.78;71.91;98858.63;3504917;28;20452;-42
2021/07/01 00:04:03;;;;;;;12.20;10.90;;;;;;;22.74;72.39;98854.41;3496012;28;20560;-43
2021/07/01 00:05:45;;;;;;;13.13;10.25;;;;;;;22.70;71.68;98847.56;3498718;28;20083;-42
2021/07/01 00:07:26;;;;;;;12.65;10.80;;;;;;;22.71;72.24;98838.72;3496673;28;20090;-45
2021/07/01 00:09:14;;;;;;;13.43;11.13;;;;;;;22.68;72.10;98837.06;3498938;28;20138;-42
2021/07/01 00:10:56;;;;;;;12.35;10.27;;;;;;;22.68;72.72;98837.06;3500534;28;20075;-43
2021/07/01 00:12:37;;;;;;;12.43;11.13;;;;;;;22.66;73.13;98827.53;3495550;28;20616;-42
2021/07/01 00:14:19;;;;;;;16.08;10.88;;;;;;;22.62;72.39;98828.56;3500418;28;20521;-42
2021/07/01 00:16:01;;;;;;;11.05;9.90;;;;;;;22.56;72.27;98825.31;3495840;28;20048;-42
2021/07/01 00:17:44;;;;;;;11.52;9.75;;;;;;;22.56;72.86;98830.59;3501255;28;20052;-43
2021/07/01 00:19:26;;;;;;;12.35;11.07;;;;;;;22.52;74.07;98817.63;3499616;28;20485;-42
2021/07/01 00:21:07;;;;;;;11.48;10.20;;;;;;;22.47;74.13;98817.81;3510866;28;20075;-43
2021/07/01 00:22:50;;;;;;;12.60;9.77;;;;;;;22.40;73.84;98819.88;3508256;28;20040;-43
2021/07/01 00:24:31;;;;;;;14.63;11.27;;;;;;;22.30;74.58;98820.41;3498050;28;20528;-43
2021/07/01 00:26:12;;;;;;;13.13;10.85;;;;;;;22.18;75.28;98814.78;3505137;28;20036;-43
2021/07/01 00:28:00;;;;;;;14.63;11.60;;;;;;;22.10;75.11;98808.16;3511786;28;20075;-43
2021/07/01 00:29:42;;;;;;;14.68;11.80;;;;;;;22.06;75.11;98803.94;3502150;28;20076;-43
2021/07/01 00:31:23;;;;;;;14.35;11.10;;;;;;;22.05;75.39;98783.72;3499974;28;20088;-42
2021/07/01 00:33:05;;;;;;;14.77;11.38;;;;;;;22.03;75.66;98781.16;3509885;28;20075;-42
2021/07/01 00:34:47;;;;;;;15.13;11.52;;;;;;;21.99;75.89;98775.16;3508117;28;20101;-43
2021/07/01 00:36:28;;;;;;;14.15;11.98;;;;;;;21.97;75.90;98777.03;3511594;28;20085;-42
2021/07/01 00:38:10;;;;;;;16.20;12.13;;;;;;;21.92;76.39;98784.31;3508658;28;20512;-42
2021/07/01 00:39:51;;;;;;;12.93;11.40;;;;;;;21.86;75.99;98779.34;3511403;28;20079;-42
2021/07/01 00:41:33;;;;;;;14.35;12.32;;;;;;;21.83;76.43;98772.41;3501913;28;20573;-42
2021/07/01 00:43:14;;;;;;;13.55;12.05;;;;;;;21.79;77.20;98770.84;3500150;28;20048;-42
2021/07/01 00:44:56;;;;;;;12.52;11.23;;;;;;;21.76;77.39;98764.84;3500442;28;20557;-42
2021/07/01 00:46:37;;;;;;;16.67;12.32;;;;;;;21.71;77.85;98758.94;3501922;28;20139;-43
2021/07/01 00:48:20;;;;;;;15.93;12.27;;;;;;;21.66;77.64;98755.63;3511504;28;20051;-42
2021/07/01 00:50:05;;;;;;;16.35;12.02;;;;;;;21.63;77.96;98756.66;3507661;28;20178;-42
2021/07/01 00:51:47;;;;;;;12.77;11.48;;;;;;;21.60;78.24;98762.03;3511290;28;20140;-42
2021/07/01 00:53:28;;;;;;;13.55;11.40;;;;;;;21.56;78.32;98755.16;3508600;28;20143;-42
2021/07/01 00:55:12;;;;;;;12.90;11.60;;;;;;;21.51;78.47;98755.38;3509411;28;20090;-42
2021/07/01 00:56:53;;;;;;;15.13;11.45;;;;;;;21.46;78.99;98752.09;3511245;28;20550;-43
2021/07/01 00:58:36;;;;;;;15.70;11.48;;;;;;;21.40;79.56;98755.00;3507931;28;20588;-42
2021/07/01 01:00:29;;;;;;;16.00;12.80;;;;;;;21.31;79.77;98766.81;3511636;28;20076;-42
2021/07/01 01:02:11;;;;;;;14.95;12.60;;;;;;;21.23;80.28;98784.81;3508264;28;20055;-42
2021/07/01 01:03:53;;;;;;;15.25;13.65;;;;;;;21.12;80.24;98794.94;3509690;28;20044;-42
2021/07/01 01:05:34;;;;;;;16.23;14.52;;;;;;;21.03;81.64;98786.53;3507134;28;20104;-42
2021/07/01 01:07:16;;;;;;;14.93;13.40;;;;;;;20.97;80.97;98786.78;3501714;28;20052;-42
2021/07/01 01:08:58;;;;;;;17.38;13.15;;;;;;;20.96;82.61;98786.84;3497940;28;20080;-42
2021/07/01 01:10:40;;;;;;;18.55;14.75;;;;;;;20.94;82.42;98784.28;3502301;28;20068;-42
2021/07/01 01:12:21;;;;;;;17.25;13.60;;;;;;;20.94;82.41;98773.75;3497708;28;20098;-42
2021/07/01 01:14:03;;;;;;;18.33;14.13;;;;;;;20.94;82.41;98771.13;3502117;28;20048;-42
2021/07/01 01:15:44;;;;;;;17.42;14.65;;;;;;;20.93;82.69;98769.38;3498601;28;20076;-42
2021/07/01 01:17:26;;;;;;;16.05;14.18;;;;;;;20.93;81.71;98771.19;3509930;28;20056;-42
2021/07/01 01:19:09;;;;;;;17.77;15.05;;;;;;;20.91;83.06;98768.59;3508302;28;20059;-42
2021/07/01 01:20:51;;;;;;;18.63;15.55;;;;;;;20.87;83.51;98762.59;3511150;28;20468;-42
2021/07/01 01:22:33;;;;;;;18.77;15.00;;;;;;;20.85;83.81;98769.72;3505691;28;20129;-42
2021/07/01 01:24:15;;;;;;;19.75;14.52;;;;;;;20.84;83.04;98769.78;3497742;28;20075;-42
2021/07/01 01:25:59;;;;;;;16.48;14.15;;;;;;;20.83;83.13;98766.28;3502224;28;20096;-42
2021/07/01 01:27:40;;;;;;;17.05;13.27;;;;;;;20.85;81.31;98758.31;3498872;28;20143;-42
2021/07/01 01:29:22;;;;;;;16.33;13.23;;;;;;;20.87;81.94;98749.41;3509546;28;20076;-42
2021/07/01 01:31:15;;;;;;;;;;;;;;;20.88;80.35;98735.31;3507642;28;20055;-42
2021/07/01 01:32:56;;;;;;;16.83;13.50;;;;;;;20.92;82.93;98736.03;3508439;28;19931;-42
2021/07/01 01:34:38;;;;;;;18.17;13.80;;;;;;;20.93;83.09;98724.56;3507681;28;20135;-42
2021/07/01 01:36:19;;;;;;;22.17;14.80;;;;;;;20.94;83.38;98728.94;3510540;28;20139;-42
2021/07/01 01:38:02;;;;;;;15.73;13.05;;;;;;;20.93;83.85;98716.66;3508586;28;20135;-42
2021/07/01 01:39:47;;;;;;;18.05;14.00;;;;;;;20.92;84.05;98714.09;3508976;28;20090;-42
2021/07/01 01:41:28;;;;;;;18.50;14.13;;;;;;;20.88;84.18;98711.56;3498346;28;20063;-42
2021/07/01 01:43:10;;;;;;;16.77;14.20;;;;;;;20.86;84.49;98704.66;3502731;28;20531;-43
2021/07/01 01:44:51;;;;;;;17.30;13.65;;;;;;;20.84;84.34;98703.88;3511146;28;20512;-42
2021/07/01 01:46:35;;;;;;;19.40;13.52;;;;;;;20.80;84.31;98705.81;3507851;28;20083;-42
2021/07/01 01:48:17;;;;;;;17.25;13.88;;;;;;;20.79;84.63;98705.84;3510151;28;20097;-43
2021/07/01 01:50:00;;;;;;;16.10;14.27;;;;;;;20.77;85.22;98705.94;3509339;28;20077;-43
2021/07/01 01:51:41;;;;;;;29.80;15.70;;;;;;;20.75;85.07;98709.53;3507883;28;20185;-42
2021/07/01 01:53:23;;;;;;;20.83;15.07;;;;;;;20.75;85.45;98697.22;3510212;28;20134;-42
2021/07/01 01:55:05;;;;;;;22.23;16.08;;;;;;;20.73;85.51;98699.06;3506672;28;20142;-42
2021/07/01 01:56:46;;;;;;;25.35;18.75;;;;;;;20.70;85.80;98702.66;3496778;28;20559;-42
2021/07/01 01:58:32;;;;;;;26.23;18.65;;;;;;;20.66;86.13;98689.69;3505584;28;20428;-42
2021/07/01 02:00:16;;;;;;;23.48;18.15;;;;;;;20.62;86.35;98685.47;3509268;28;20164;-42
2021/07/01 02:01:58;;;;;;;21.45;16.42;;;;;;;20.58;86.97;98686.53;3500235;28;20167;-42
2021/07/01 02:03:40;;;;;;;20.63;16.23;;;;;;;20.56;87.35;98688.38;3501455;28;20134;-42
2021/07/01 02:05:21;;;;;;;22.15;15.80;;;;;;;20.54;87.28;98690.22;3496888;28;20437;-42
2021/07/01 02:07:03;;;;;;;20.40;16.40;;;;;;;20.54;87.25;98677.91;3504109;28;20075;-42
2021/07/01 02:08:45;;;;;;;16.58;14.20;;;;;;;20.56;86.35;98678.69;3497084;28;20052;-42
2021/07/01 02:10:29;;;;;;;15.13;13.50;;;;;;;20.58;84.78;98679.47;3507105;28;20082;-42
2021/07/01 02:12:10;;;;;;;16.63;13.30;;;;;;;20.60;85.19;98676.78;3509014;28;20071;-42
2021/07/01 02:13:52;;;;;;;19.15;14.90;;;;;;;20.62;87.33;98677.56;3509671;28;20078;-43
2021/07/01 02:15:33;;;;;;;21.13;14.32;;;;;;;20.63;87.56;98672.22;3508773;28;20040;-44
2021/07/01 02:17:14;;;;;;;23.73;14.60;;;;;;;20.62;87.82;98672.28;3510811;28;20087;-43
2021/07/01 02:18:56;;;;;;;19.17;15.18;;;;;;;20.63;87.83;98672.22;3507255;28;20457;-43
2021/07/01 02:20:37;;;;;;;16.70;14.75;;;;;;;20.61;87.85;98666.16;3510709;28;20178;-43
2021/07/01 02:22:19;;;;;;;22.98;14.57;;;;;;;20.61;87.75;98662.69;3507495;28;20052;-42
2021/07/01 02:24:01;;;;;;;17.13;14.40;;;;;;;20.61;88.02;98662.69;3508874;28;20614;-42
2021/07/01 02:25:42;;;;;;;15.95;13.80;;;;;;;20.62;87.59;98664.38;3509067;28;20091;-43
2021/07/01 02:27:23;;;;;;;17.25;14.75;;;;;;;20.63;87.50;98659.03;3508052;28;20071;-43
2021/07/01 02:29:05;;;;;;;17.25;14.90;;;;;;;20.65;87.38;98659.84;3506410;28;20082;-42
2021/07/01 02:30:46;;;;;;;17.50;14.98;;;;;;;20.68;87.69;98667.63;3507035;28;20059;-42
2021/07/01 02:32:27;;;;;;;16.85;14.68;;;;;;;20.73;86.84;98672.69;3510291;28;20138;-42
2021/07/01 02:34:09;;;;;;;19.35;14.70;;;;;;;20.77;86.43;98676.94;3506913;28;20131;-42
2021/07/01 02:35:51;;;;;;;13.50;12.10;;;;;;;20.80;83.70;98682.06;3508782;28;20060;-42
2021/07/01 02:37:33;;;;;;;17.73;14.73;;;;;;;20.83;85.32;98683.69;3508874;28;20512;-43
2021/07/01 02:39:15;;;;;;;19.42;14.90;;;;;;;20.87;86.35;98688.78;3507079;28;20556;-44
2021/07/01 02:40:57;;;;;;;18.05;14.13;;;;;;;20.94;86.33;98691.13;3509510;28;20083;-42
2021/07/01 02:42:39;;;;;;;18.65;15.02;;;;;;;20.99;86.55;98704.97;3507637;28;20472;-42
2021/07/01 02:44:20;;;;;;;18.40;15.25;;;;;;;21.02;86.68;98712.75;3510691;28;20135;-42
2021/07/01 02:46:01;;;;;;;15.50;13.85;;;;;;;21.02;86.73;98710.13;3501420;28;20635;-42
2021/07/01 02:47:42;;;;;;;18.52;15.40;;;;;;;21.03;87.18;98717.09;3497773;28;20086;-42
2021/07/01 02:49:24;;;;;;;21.63;15.23;;;;;;;21.03;87.29;98712.69;3499994;28;20055;-42
2021/07/01 02:51:06;;;;;;;21.42;15.43;;;;;;;21.03;87.15;98717.09;3499867;28;20084;-42
2021/07/01 02:52:47;;;;;;;20.05;15.35;;;;;;;20.99;87.74;98719.00;3509267;28;20129;-42
2021/07/01 02:54:29;;;;;;;18.27;14.25;;;;;;;20.93;86.79;98718.44;3506927;28;20106;-43
2021/07/01 02:56:10;;;;;;;21.20;15.30;;;;;;;20.91;88.40;98726.41;3510440;28;20054;-42
2021/07/01 02:57:52;;;;;;;18.80;15.65;;;;;;;20.87;88.89;98738.00;3506971;28;20441;-42
2021/07/01 02:59:33;;;;;;;17.05;15.25;;;;;;;20.86;88.82;98731.03;3508317;28;20071;-42
2021/07/01 03:01:16;;;;;;;17.73;15.18;;;;;;;20.85;88.64;98739.84;3508903;28;20048;-41
2021/07/01 03:02:57;;;;;;;18.05;14.50;;;;;;;20.86;87.04;98741.56;3508200;28;20039;-43
2021/07/01 03:04:39;;;;;;;16.35;14.50;;;;;;;20.88;88.46;98742.34;3496150;28;20052;-42
2021/07/01 03:06:20;;;;;;;17.23;14.90;;;;;;;20.95;88.28;98745.59;3501870;28;20113;-42
2021/07/01 03:08:02;;;;;;;16.50;14.65;;;;;;;21.02;87.99;98747.88;3510434;28;20086;-43
2021/07/01 03:09:44;;;;;;;15.18;13.57;;;;;;;21.06;83.97;98754.72;3507034;28;20075;-43
2021/07/01 03:11:25;;;;;;;18.02;15.15;;;;;;;21.12;87.53;98753.63;3508452;28;20087;-42
2021/07/01 03:13:06;;;;;;;16.02;14.32;;;;;;;21.18;87.31;98760.41;3500226;28;20048;-42
2021/07/01 03:14:48;;;;;;;16.73;14.73;;;;;;;21.23;87.15;98767.19;3500130;28;20500;-43
2021/07/01 03:16:29;;;;;;;20.35;15.60;;;;;;;21.27;86.53;98775.81;3496785;28;20159;-43
2021/07/01 03:18:11;;;;;;;18.90;15.50;;;;;;;21.28;86.48;98782.81;3502689;28;20040;-42
2021/07/01 03:19:52;;;;;;;18.50;15.27;;;;;;;21.27;87.24;98795.13;3510365;28;20048;-44
2021/07/01 03:21:34;;;;;;;17.23;14.48;;;;;;;21.26;87.14;98803.13;3506564;28;20083;-43
2021/07/01 03:23:15;;;;;;;18.52;16.50;;;;;;;21.22;87.56;98806.81;3508398;28;20056;-43
2021/07/01 03:24:57;;;;;;;18.73;16.48;;;;;;;21.20;87.79;98809.50;3505509;28;20075;-44
2021/07/01 03:26:38;;;;;;;19.52;17.42;;;;;;;21.14;88.18;98815.06;3507686;28;20081;-44
2021/07/01 03:28:20;;;;;;;17.08;15.05;;;;;;;21.10;88.33;98817.91;3496629;28;20151;-45
2021/07/01 03:30:02;;;;;;;19.95;16.77;;;;;;;21.04;88.90;98829.56;3500796;28;20040;-43
2021/07/01 03:31:43;;;;;;;22.27;17.08;;;;;;;20.99;88.98;98835.03;3496193;28;20460;-42
2021/07/01 03:33:25;;;;;;;19.40;17.23;;;;;;;20.92;88.30;98838.00;3500572;28;20362;-43
2021/07/01 03:35:07;;;;;;;20.90;18.73;;;;;;;20.85;88.49;98840.03;3496816;28;20155;-43
2021/07/01 03:36:48;;;;;;;22.00;18.00;;;;;;;20.80;88.69;98840.25;3507319;28;20079;-43
2021/07/01 03:38:30;;;;;;;24.10;18.38;;;;;;;20.75;88.51;98844.84;3507584;28;20050;-42
2021/07/01 03:40:13;;;;;;;23.02;19.23;;;;;;;20.72;88.76;98841.44;3504399;28;20127;-42
2021/07/01 03:41:55;;;;;;;23.00;19.17;;;;;;;20.71;88.93;98830.00;3504942;28;20102;-44
2021/07/01 03:43:40;;;;;;;20.52;17.77;;;;;;;20.70;89.27;98838.88;3496027;28;20056;-43
2021/07/01 03:45:22;;;;;;;18.30;15.70;;;;;;;20.72;89.05;98841.44;3506370;28;20109;-44
2021/07/01 03:47:04;;;;;;;22.95;19.02;;;;;;;20.74;89.28;98834.34;3508140;28;20075;-43
2021/07/01 03:48:45;;;;;;;24.58;19.25;;;;;;;20.76;89.29;98835.16;3508140;28;20101;-43
2021/07/01 03:50:26;;;;;;;21.00;18.75;;;;;;;20.76;89.58;98832.50;3507602;28;20508;-42
2021/07/01 03:52:08;;;;;;;22.90;19.33;;;;;;;20.77;89.50;98842.16;3509813;28;20276;-43
2021/07/01 03:53:49;;;;;;;22.52;19.23;;;;;;;20.75;89.79;98842.19;3504327;28;20066;-43
2021/07/01 03:55:32;;;;;;;22.80;19.63;;;;;;;20.78;89.89;98836.78;3495708;28;20079;-43
2021/07/01 03:57:13;;;;;;;20.58;18.17;;;;;;;20.80;89.40;98832.34;3506014;28;20097;-42
2021/07/01 03:58:54;;;;;;;22.75;19.35;;;;;;;20.86;89.60;98837.34;3508065;28;20087;-42
2021/07/01 04:00:36;;;;;;;19.60;17.52;;;;;;;20.90;89.54;98832.78;3507917;28;20087;-42
2021/07/01 04:02:17;;;;;;;26.17;19.20;;;;;;;20.92;89.34;98823.03;3506302;28;20082;-42
2021/07/01 04:03:59;;;;;;;24.58;17.20;;;;;;;20.95;88.96;98824.69;3509747;28;20060;-42
2021/07/01 04:05:40;;;;;;;19.23;16.83;;;;;;;20.96;88.94;98835.19;3504759;28;20080;-43
2021/07/01 04:07:21;;;;;;;19.17;16.98;;;;;;;20.98;88.44;98835.97;3509580;28;20516;-43
2021/07/01 04:09:05;;;;;;;21.17;18.13;;;;;;;20.99;88.57;98842.09;3501006;28;20048;-42
2021/07/01 04:10:47;;;;;;;22.58;18.75;;;;;;;21.00;89.15;98842.03;3496605;28;20098;-42
2021/07/01 04:12:28;;;;;;;20.48;17.05;;;;;;;21.00;88.62;98838.53;3499248;28;20139;-43
2021/07/01 04:14:10;;;;;;;17.58;14.70;;;;;;;21.02;88.21;98840.19;3498787;28;20663;-43
2021/07/01 04:15:51;;;;;;;18.58;16.40;;;;;;;21.05;88.64;98839.22;3509389;28;20079;-42
2021/07/01 04:17:33;;;;;;;20.60;17.00;;;;;;;21.06;88.17;98833.84;3505896;28;20083;-42
2021/07/01 04:19:15;;;;;;;22.58;16.98;;;;;;;21.10;88.06;98829.31;3509698;28;20497;-43
2021/07/01 04:20:57;;;;;;;19.00;14.30;;;;;;;21.12;87.44;98834.50;3504902;28;20076;-42
2021/07/01 04:22:38;;;;;;;20.65;17.05;;;;;;;21.13;88.17;98825.69;3507570;28;20098;-42
2021/07/01 04:24:19;;;;;;;17.75;15.43;;;;;;;21.14;87.60;98814.22;3499128;28;20072;-42
2021/07/01 04:26:01;;;;;;;20.10;15.43;;;;;;;21.17;87.54;98812.31;3499548;28;20469;-42
2021/07/01 04:27:43;;;;;;;20.13;15.32;;;;;;;21.20;87.60;98817.44;3495765;28;20087;-42
2021/07/01 04:29:24;;;;;;;20.67;16.05;;;;;;;21.24;87.65;98815.50;3501640;28;20124;-42
2021/07/01 04:31:05;;;;;;;21.77;15.50;;;;;;;21.29;87.49;98810.88;3509518;28;20075;-42
2021/07/01 04:32:47;;;;;;;19.63;15.43;;;;;;;21.36;87.51;98819.41;3505951;28;20050;-42
2021/07/01 04:34:28;;;;;;;17.40;13.73;;;;;;;21.43;86.66;98826.97;3507308;28;20086;-42
2021/07/01 04:36:09;;;;;;;16.27;14.00;;;;;;;21.47;85.81;98835.59;3507906;28;20044;-42
2021/07/01 04:37:51;;;;;;;19.63;13.90;;;;;;;21.50;85.76;98842.53;3506030;28;20075;-42
2021/07/01 04:39:33;;;;;;;18.73;13.50;;;;;;;21.49;85.59;98836.41;3509149;28;20099;-43
2021/07/01 04:41:19;;;;;;;16.13;13.40;;;;;;;21.53;85.83;98837.13;3505839;28;20082;-42
2021/07/01 04:43:00;;;;;;;16.42;12.38;;;;;;;21.53;85.64;98843.25;3509597;28;20071;-42
2021/07/01 04:44:42;;;;;;;15.82;11.38;;;;;;;21.52;85.10;98843.31;3505339;28;20108;-42
2021/07/01 04:46:23;;;;;;;16.73;12.93;;;;;;;21.50;85.87;98853.94;3507971;28;20067;-43
2021/07/01 04:48:06;;;;;;;19.70;13.88;;;;;;;21.46;85.41;98847.94;3508039;28;20451;-42
2021/07/01 04:49:47;;;;;;;17.67;13.23;;;;;;;21.45;85.79;98859.44;3505997;28;20547;-44
2021/07/01 04:51:29;;;;;;;17.60;13.63;;;;;;;21.45;85.30;98859.44;3495198;28;20620;-42
2021/07/01 04:53:11;;;;;;;15.07;13.25;;;;;;;21.47;85.94;98856.72;3500208;28;20067;-43
2021/07/01 04:54:52;;;;;;;13.52;11.65;;;;;;;21.45;85.45;98856.81;3495344;28;20053;-43
2021/07/01 04:56:46;;;;;;;19.10;12.82;;;;;;;21.48;85.47;98860.22;3505371;28;20076;-44
2021/07/01 04:58:28;;;;;;;15.43;11.85;;;;;;;21.51;85.66;98857.47;3506970;28;20079;-43
2021/07/01 05:00:10;;;;;;;16.70;12.93;;;;;;;21.53;85.58;98863.53;3508092;28;20074;-43
2021/07/01 05:01:52;;;;;;;15.82;12.68;;;;;;;21.54;85.57;98865.22;3505568;28;20044;-43
2021/07/01 05:03:33;;;;;;;15.50;12.98;;;;;;;21.57;86.08;98871.22;3496040;28;20086;-43
2021/07/01 05:05:15;;;;;;;18.13;13.15;;;;;;;21.57;85.44;98860.66;3506172;28;20093;-42
2021/07/01 05:06:56;;;;;;;15.63;12.00;;;;;;;21.63;85.73;98865.72;3509711;28;20147;-42
2021/07/01 05:08:38;;;;;;;19.55;12.73;;;;;;;21.69;85.83;98872.50;3500807;28;20515;-43
2021/07/01 05:10:19;;;;;;;16.02;13.43;;;;;;;21.74;85.22;98870.53;3500091;28;20055;-42
2021/07/01 05:12:01;;;;;;;15.70;13.18;;;;;;;21.79;85.40;98865.88;3510260;28;20174;-42
2021/07/01 05:13:43;;;;;;;17.30;13.30;;;;;;;21.82;84.13;98872.81;3507327;28;20403;-42
2021/07/01 05:15:24;;;;;;;20.13;14.35;;;;;;;21.81;84.32;98876.38;3511279;28;20082;-43
2021/07/01 05:17:06;;;;;;;14.48;12.95;;;;;;;21.87;84.93;98876.09;3507246;28;20044;-42
2021/07/01 05:18:47;;;;;;;17.25;13.02;;;;;;;21.90;84.50;98881.25;3510793;28;20087;-42
2021/07/01 05:20:29;;;;;;;13.05;11.13;;;;;;;21.96;84.35;98872.19;3501434;28;20083;-42
2021/07/01 05:22:10;;;;;;;14.98;11.23;;;;;;;22.01;83.99;98878.09;3509384;28;20194;-42
2021/07/01 05:23:51;;;;;;;14.88;12.85;;;;;;;22.05;83.42;98873.53;3507990;28;20397;-42
2021/07/01 05:25:33;;;;;;;16.58;12.52;;;;;;;22.09;83.18;98875.97;3509240;28;20075;-42
2021/07/01 05:27:15;;;;;;;19.75;12.63;;;;;;;22.14;83.31;98875.75;3511399;28;20086;-42
2021/07/01 05:28:56;;;;;;;16.52;12.32;;;;;;;22.19;82.39;98869.34;3508385;28;20075;-42
2021/07/01 05:30:58;;;;;;;20.00;12.32;;;;;;;22.24;82.11;98863.81;3507767;28;20492;-42
2021/07/01 05:32:39;;;;;;;15.82;12.48;;;;;;;22.30;82.47;98874.13;3508845;28;20048;-44
2021/07/01 05:34:20;;;;;;;20.63;12.25;;;;;;;22.35;82.61;98876.53;3507420;28;20494;-43
2021/07/01 05:36:02;;;;;;;14.68;12.68;;;;;;;22.39;81.46;98884.25;3511093;28;20052;-43
2021/07/01 05:37:44;;;;;;;15.75;12.32;;;;;;;22.38;81.21;98881.69;3506999;28;20138;-44
2021/07/01 05:39:25;;;;;;;19.63;12.35;;;;;;;22.35;81.46;98882.69;3511218;28;20130;-43
2021/07/01 05:41:07;;;;;;;17.67;12.18;;;;;;;22.35;81.74;98876.53;3508005;28;20052;-44
2021/07/01 05:42:49;;;;;;;20.25;12.82;;;;;;;22.37;82.12;98874.66;3509290;28;20081;-43
2021/07/01 05:44:30;;;;;;;15.23;12.70;;;;;;;22.42;82.03;98883.22;3499084;28;20429;-43
2021/07/01 05:46:12;;;;;;;15.65;12.50;;;;;;;22.48;81.83;98884.78;3499768;28;20481;-43
2021/07/01 05:47:54;;;;;;;18.33;11.93;;;;;;;22.55;81.59;98881.75;3496899;28;20110;-43
2021/07/01 05:49:35;;;;;;;18.17;12.40;;;;;;;22.61;82.29;98885.88;3503428;28;20070;-43
2021/07/01 05:51:17;;;;;;;15.93;12.25;;;;;;;22.67;81.09;98890.03;3511124;28;20630;-43
2021/07/01 05:53:04;;;;;;;17.13;12.02;;;;;;;22.72;79.96;98883.56;3500942;28;20516;-43
2021/07/01 05:54:53;;;;;;;16.92;12.05;;;;;;;22.76;80.88;98882.50;3499219;28;20048;-43
2021/07/01 05:56:37;;;;;;;17.02;11.65;;;;;;;22.78;81.23;98879.78;3498027;28;20459;-43
2021/07/01 05:58:19;;;;;;;17.70;12.73;;;;;;;22.82;80.97;98888.44;3503842;28;20082;-43
2021/07/01 06:00:00;;;;;;;16.27;12.45;;;;;;;22.80;80.05;98896.44;3510966;28;20052;-43
2021/07/01 06:01:41;;;;;;;14.52;12.02;;;;;;;22.81;80.17;98892.00;3502999;28;20087;-43
2021/07/01 06:03:23;;;;;;;17.42;12.35;;;;;;;22.84;80.13;98895.34;3497849;28;20060;-43
2021/07/01 06:05:05;;;;;;;16.50;12.52;;;;;;;22.88;80.55;98885.47;3501019;28;20079;-43
2021/07/01 06:06:49;;;;;;;18.13;12.80;;;;;;;22.96;80.31;98875.38;3504460;28;20052;-43
2021/07/01 06:08:32;;;;;;;30.73;12.77;;;;;;;23.07;80.30;98880.97;3509768;28;20347;-42
2021/07/01 06:10:17;;;;;;;17.58;11.52;;;;;;;23.17;79.29;98880.53;3506110;28;20456;-43
2021/07/01 06:12:00;;;;;;;13.23;11.02;;;;;;;23.26;78.25;98880.91;3497192;28;20079;-43
2021/07/01 06:13:43;;;;;;;16.02;12.25;;;;;;;23.37;78.48;98879.53;3506794;28;20142;-43
2021/07/01 06:15:27;;;;;;;15.38;11.80;;;;;;;23.47;77.91;98878.97;3509019;28;20140;-43
2021/07/01 06:17:08;;;;;;;14.02;11.25;;;;;;;23.59;76.89;98871.31;3499435;28;20059;-42
2021/07/01 06:18:50;;;;;;;17.85;11.93;;;;;;;23.70;76.18;98874.28;3500436;28;20485;-42
2021/07/01 06:20:32;;;;;;;16.40;12.23;;;;;;;23.83;75.88;98874.47;3505080;28;20051;-43
2021/07/01 06:22:13;;;;;;;16.23;11.85;;;;;;;23.94;75.49;98876.53;3506653;28;20097;-43
2021/07/01 06:23:56;;;;;;;14.85;11.00;;;;;;;24.09;75.15;98876.59;3509737;28;20571;-43
2021/07/01 06:25:37;;;;;;;17.10;11.82;;;;;;;24.23;75.40;98877.63;3506295;28;20094;-43
2021/07/01 06:27:22;;;;;;;18.40;13.20;;;;;;;24.35;74.17;98882.25;3508417;28;20545;-44
2021/07/01 06:29:04;;;;;;;13.15;10.73;;;;;;;24.45;73.88;98883.47;3505534;28;20121;-44
2021/07/01 06:30:46;;;;;;;17.50;11.05;;;;;;;24.54;73.63;98878.56;3506431;28;20101;-44
2021/07/01 06:32:28;;;;;;;15.38;11.55;;;;;;;24.60;73.47;98881.72;3506851;28;20496;-44
2021/07/01 06:34:09;;;;;;;12.85;11.43;;;;;;;24.58;72.04;98885.44;3506601;28;20071;-44
2021/07/01 06:35:54;;;;;;;12.63;11.18;;;;;;;24.48;72.11;98885.91;3509083;28;20148;-44
2021/07/01 06:37:39;;;;;;;18.23;10.48;;;;;;;24.47;72.86;98892.19;3506429;28;20094;-44
2021/07/01 06:39:24;;;;;;;20.52;12.25;;;;;;;24.43;72.40;98879.19;3506517;28;20416;-45
2021/07/01 06:41:08;;;;;;;16.30;11.20;;;;;;;24.39;73.23;98889.09;3508484;28;20135;-44
2021/07/01 06:42:56;;;;;;;13.98;12.00;;;;;;;24.38;73.13;98892.66;3502943;28;20059;-42
2021/07/01 06:44:40;;;;;;;14.90;11.35;;;;;;;24.35;72.93;98887.56;3508717;28;20075;-42
2021/07/01 06:46:25;;;;;;;12.82;11.32;;;;;;;24.33;73.48;98883.28;3507185;28;20082;-43
2021/07/01 06:48:09;;;;;;;14.25;11.45;;;;;;;24.35;73.66;98876.09;3508063;28;20048;-42
2021/07/01 06:49:50;;;;;;;;;;;;;;;24.39;73.33;98888.25;3508724;28;20500;-43
2021/07/01 06:51:37;;;;;;;14.45;11.98;;;;;;;24.36;73.48;98880.47;3505871;28;20533;-43
2021/07/01 06:53:21;;;;;;;15.88;11.52;;;;;;;24.37;73.72;98885.69;3508188;28;20101;-43
2021/07/01 06:55:03;;;;;;;15.88;11.25;;;;;;;24.40;73.35;98874.03;3506416;28;20040;-43
2021/07/01 06:56:45;;;;;;;17.13;12.30;;;;;;;24.41;73.68;98873.09;3508403;28;20040;-43
2021/07/01 06:58:26;;;;;;;15.90;10.95;;;;;;;24.44;73.15;98873.78;3507622;28;20139;-43
2021/07/01 07:00:11;;;;;;;15.52;11.02;;;;;;;24.51;73.13;98870.78;3505664;28;21031;-42
2021/07/01 07:01:53;;;;;;;14.02;10.32;;;;;;;24.54;71.55;98868.84;3509790;28;20082;-42
2021/07/01 07:03:34;;;;;;;19.40;11.23;;;;;;;24.57;71.47;98875.75;3505129;28;20048;-43
2021/07/01 07:05:17;;;;;;;11.93;10.05;;;;;;;24.59;71.53;98864.09;3509863;28;20120;-42
2021/07/01 07:06:58;;;;;;;13.52;11.02;;;;;;;24.65;71.80;98866.41;3503166;28;20044;-43
2021/07/01 07:08:40;;;;;;;14.52;11.00;;;;;;;24.72;72.55;98868.69;3508127;28;20075;-43
2021/07/01 07:10:22;;;;;;;14.15;10.07;;;;;;;24.80;72.38;98870.00;3508164;28;20094;-43
2021/07/01 07:12:03;;;;;;;17.63;11.20;;;;;;;24.83;71.18;98869.00;3507061;28;20405;-43
2021/07/01 07:13:45;;;;;;;16.42;10.95;;;;;;;24.80;70.56;98877.97;3507872;28;20493;-43
2021/07/01 07:15:27;;;;;;;16.90;11.20;;;;;;;24.78;70.73;98863.06;3506633;28;20048;-43
2021/07/01 07:17:11;;;;;;;14.02;10.07;;;;;;;24.77;70.59;98864.00;3509226;28;20040;-43
2021/07/01 07:18:55;;;;;;;14.32;9.63;;;;;;;24.76;70.27;98876.41;3506434;28;20052;-43
2021/07/01 07:20:40;;;;;;;12.55;9.98;;;;;;;24.78;70.52;98869.22;3505099;28;20504;-43
2021/07/01 07:22:24;;;;;;;12.48;9.40;;;;;;;24.81;70.71;98857.63;3506585;28;20189;-43
2021/07/01 07:24:09;;;;;;;15.00;10.55;;;;;;;24.83;69.56;98858.38;3507169;28;20048;-43
2021/07/01 07:25:51;;;;;;;14.13;9.73;;;;;;;24.81;70.18;98861.13;3507294;28;20504;-44
2021/07/01 07:27:33;;;;;;;13.32;10.13;;;;;;;24.82;69.80;98851.34;3504638;28;20551;-43
2021/07/01 07:29:16;;;;;;;12.65;10.00;;;;;;;24.87;70.95;98849.28;3508840;28;20558;-44
2021/07/01 07:30:59;;;;;;;10.52;9.43;;;;;;;24.99;69.64;98859.19;3503232;28;20044;-43
2021/07/01 07:32:41;;;;;;;;;;;;;;;25.08;70.14;98859.59;3506405;28;20134;-44
2021/07/01 07:34:26;;;;;;;13.73;10.10;;;;;;;25.13;69.59;98854.88;3503604;28;20632;-43
2021/07/01 07:36:08;;;;;;;16.52;10.25;;;;;;;25.20;70.10;98859.72;3506827;28;20079;-43
2021/07/01 07:37:49;;;;;;;14.38;9.77;;;;;;;25.22;68.84;98851.66;3506663;28;20075;-43
2021/07/01 07:39:32;;;;;;;13.90;9.77;;;;;;;25.31;69.69;98850.25;3504803;28;20094;-44
2021/07/01 07:41:14;;;;;;;;;;;;;;;25.39;68.57;98859.47;3505970;28;20136;-44
2021/07/01 07:42:56;;;;;;;14.23;10.30;;;;;;;25.45;68.78;98857.41;3504743;28;19923;-43
2021/07/01 07:44:39;;;;;;;14.32;9.43;;;;;;;25.52;67.67;98845.44;3508266;28;20500;-43
2021/07/01 07:46:23;;;;;;;12.10;9.45;;;;;;;25.56;66.75;98839.88;3505092;28;20048;-43
2021/07/01 07:48:04;;;;;;;11.82;9.68;;;;;;;25.72;67.94;98838.94;3508633;28;20420;-43
2021/07/01 07:49:46;;;;;;;14.35;9.57;;;;;;;25.85;66.94;98831.91;3505976;28;20105;-43
2021/07/01 07:51:32;;;;;;;10.90;9.38;;;;;;;26.08;67.47;98832.28;3507202;28;20056;-43